createdAt,value
2017-09-23T00:00:39.421Z,11.50
2017-09-23T00:03:10.579Z,12.80
2017-09-23T00:05:40.971Z,13.40
2017-09-23T00:08:11.998Z,11.20
2017-09-23T00:10:42.426Z,11.67
2017-09-23T00:13:12.840Z,11.80
2017-09-23T00:15:43.186Z,11.67
2017-09-23T00:18:14.145Z,10.80
2017-09-23T00:20:45.255Z,11.33
2017-09-23T00:23:21.865Z,11.60
2017-09-23T00:25:52.475Z,10.60
2017-09-23T00:28:23.026Z,12.17
2017-09-23T00:30:53.483Z,11.93
2017-09-23T00:33:26.117Z,11.20
2017-09-23T00:35:56.722Z,11.23
2017-09-23T00:38:27.642Z,11.27
2017-09-23T00:40:58.084Z,10.50
2017-09-23T00:43:29.051Z,11.70
2017-09-23T00:45:59.468Z,11.07
2017-09-23T00:48:31.457Z,11.67
2017-09-23T00:51:02.444Z,11.20
2017-09-23T00:53:33.259Z,10.90
2017-09-23T00:56:04.746Z,11.13
2017-09-23T00:58:35.291Z,10.63
2017-09-23T01:01:06.557Z,11.83
2017-09-23T01:03:39.006Z,11.60
2017-09-23T01:06:09.513Z,12.00
2017-09-23T01:08:40.011Z,12.73
2017-09-23T01:11:11.894Z,12.03
2017-09-23T01:13:43.822Z,11.37
2017-09-23T01:16:14.388Z,11.90
2017-09-23T01:18:44.848Z,11.77
2017-09-23T01:21:16.185Z,11.77
2017-09-23T01:23:48.449Z,10.10
2017-09-23T01:26:20.199Z,10.80
2017-09-23T01:28:51.319Z,9.20
2017-09-23T01:31:22.588Z,9.73
2017-09-23T01:33:53.686Z,8.87
2017-09-23T01:36:24.775Z,10.30
2017-09-23T01:38:57.062Z,10.93
2017-09-23T01:41:30.128Z,11.27
2017-09-23T01:44:03.156Z,11.90
2017-09-23T01:46:36.046Z,11.70
2017-09-23T01:49:07.726Z,13.80
2017-09-23T01:51:38.667Z,13.57
2017-09-23T01:54:09.596Z,10.87
2017-09-23T01:56:41.260Z,11.20
2017-09-23T01:59:13.400Z,10.60
2017-09-23T02:01:45.363Z,10.40
2017-09-23T02:04:16.624Z,12.07
2017-09-23T02:06:47.510Z,11.13
2017-09-23T02:09:18.051Z,10.10
2017-09-23T02:11:49.054Z,10.53
2017-09-23T02:14:20.113Z,12.07
2017-09-23T02:16:50.284Z,13.00
2017-09-23T02:19:21.218Z,12.50
2017-09-23T02:21:53.169Z,11.00
2017-09-23T02:24:24.939Z,11.10
2017-09-23T02:26:55.227Z,10.90
2017-09-23T02:29:26.172Z,11.80
2017-09-23T02:31:56.774Z,11.60
2017-09-23T02:34:27.026Z,10.40
2017-09-23T02:36:57.280Z,10.50
2017-09-23T02:39:28.228Z,10.67
2017-09-23T02:41:58.726Z,11.60
2017-09-23T02:44:30.468Z,11.67
2017-09-23T02:47:01.835Z,12.30
2017-09-23T02:49:32.069Z,12.17
2017-09-23T02:52:02.669Z,11.13
2017-09-23T02:54:33.124Z,12.13
2017-09-23T02:57:04.172Z,12.30
2017-09-23T02:59:35.235Z,11.57
2017-09-23T03:02:06.459Z,10.93
2017-09-23T03:04:38.924Z,11.80
2017-09-23T03:07:09.167Z,11.33
2017-09-23T03:09:40.276Z,12.33
2017-09-23T03:12:11.574Z,10.30
2017-09-23T03:14:42.418Z,10.37
2017-09-23T03:17:14.271Z,10.97
2017-09-23T03:19:45.948Z,12.10
2017-09-23T03:22:18.972Z,12.00
2017-09-23T03:24:51.279Z,11.80
2017-09-23T03:27:22.990Z,11.30
2017-09-23T03:29:54.464Z,12.30
2017-09-23T03:32:25.360Z,12.07
2017-09-23T03:34:57.128Z,11.50
2017-09-23T03:37:28.486Z,11.63
2017-09-23T03:40:00.741Z,12.40
2017-09-23T03:42:32.163Z,13.07
2017-09-23T03:45:05.422Z,13.83
2017-09-23T03:47:35.995Z,14.57
2017-09-23T03:50:07.361Z,13.37
2017-09-23T03:52:39.057Z,14.10
2017-09-23T03:55:16.925Z,14.77
2017-09-23T03:57:48.653Z,14.10
2017-09-23T04:00:19.698Z,13.80
2017-09-23T04:02:50.682Z,14.43
2017-09-23T04:05:21.700Z,13.23
2017-09-23T04:07:54.373Z,13.50
2017-09-23T04:10:25.564Z,13.43
2017-09-23T04:12:57.145Z,15.00
2017-09-23T04:15:27.992Z,15.17
2017-09-23T04:17:59.335Z,14.03
2017-09-23T04:20:30.180Z,12.03
2017-09-23T04:23:05.539Z,13.53
2017-09-23T04:25:37.507Z,13.67
2017-09-23T04:28:08.687Z,15.70
2017-09-23T04:30:40.816Z,14.20
2017-09-23T04:33:12.840Z,15.03
2017-09-23T04:35:43.948Z,14.73
2017-09-23T04:38:14.165Z,15.07
2017-09-23T04:40:44.339Z,15.70
2017-09-23T04:43:15.164Z,16.13
2017-09-23T04:45:46.545Z,13.93
2017-09-23T04:48:18.456Z,13.27
2017-09-23T04:50:49.332Z,13.13
2017-09-23T04:53:25.416Z,14.03
2017-09-23T04:55:57.213Z,14.00
2017-09-23T04:58:28.586Z,15.00
2017-09-23T05:00:59.396Z,17.70
2017-09-23T05:03:30.693Z,17.30
2017-09-23T05:06:02.471Z,17.37
2017-09-23T05:08:34.012Z,21.83
2017-09-23T05:11:06.475Z,18.90
2017-09-23T05:13:46.573Z,17.90
2017-09-23T05:16:36.928Z,18.17
2017-09-23T05:19:08.881Z,17.73
2017-09-23T05:26:31.811Z,16.80
2017-09-23T05:29:37.650Z,17.27
2017-09-23T05:32:16.016Z,16.70
2017-09-23T05:34:46.343Z,15.63
2017-09-23T05:37:25.149Z,14.33
2017-09-23T05:40:41.560Z,13.77
2017-09-23T05:43:22.729Z,16.47
2017-09-23T05:46:45.814Z,16.90
2017-09-23T05:49:17.805Z,17.63
2017-09-23T05:52:08.035Z,17.13
2017-09-23T05:54:42.299Z,16.20
2017-09-23T05:57:21.275Z,16.00
2017-09-23T06:00:21.233Z,14.70
2017-09-23T06:03:08.733Z,14.77
2017-09-23T06:06:03.776Z,14.57
2017-09-23T06:08:56.060Z,14.60
2017-09-23T06:11:37.187Z,14.20
2017-09-23T06:14:40.198Z,15.57
2017-09-23T06:19:40.460Z,15.30
2017-09-23T06:22:12.781Z,18.90
2017-09-23T06:24:50.477Z,16.70
2017-09-23T06:27:43.568Z,16.17
2017-09-23T06:30:14.715Z,15.77
2017-09-23T06:32:51.005Z,14.57
2017-09-23T06:35:26.868Z,14.70
2017-09-23T06:38:02.118Z,13.67
2017-09-23T06:40:35.304Z,15.33
2017-09-23T06:43:16.036Z,14.73
2017-09-23T06:46:03.576Z,15.83
2017-09-23T06:55:56.026Z,15.37
2017-09-23T07:01:57.861Z,14.27
2017-09-23T07:04:31.357Z,13.63
2017-09-23T07:07:06.713Z,13.93
2017-09-23T07:09:46.593Z,15.10
2017-09-23T07:12:24.195Z,15.50
2017-09-23T07:15:04.176Z,16.50
2017-09-23T07:17:43.143Z,17.20
2017-09-23T07:20:16.757Z,17.33
2017-09-23T07:23:08.925Z,19.40
2017-09-23T07:26:00.296Z,19.13
2017-09-23T07:28:37.731Z,21.67
2017-09-23T07:31:25.494Z,22.90
2017-09-23T07:34:10.561Z,23.67
2017-09-23T07:36:48.017Z,24.10
2017-09-23T07:39:31.037Z,25.97
2017-09-23T07:42:14.520Z,25.40
2017-09-23T07:44:53.368Z,21.33
2017-09-23T07:47:32.561Z,23.53
2017-09-23T07:50:05.136Z,25.13
2017-09-23T07:52:40.707Z,23.63
2017-09-23T07:55:16.046Z,16.70
2017-09-23T07:57:50.605Z,20.43
2017-09-23T08:00:30.264Z,19.23
2017-09-23T08:03:04.633Z,19.53
2017-09-23T08:05:37.345Z,17.30
2017-09-23T08:08:07.884Z,17.80
2017-09-23T08:10:40.585Z,18.63
2017-09-23T08:13:11.136Z,18.87
2017-09-23T08:15:42.423Z,17.57
2017-09-23T08:18:15.410Z,17.20
2017-09-23T08:20:46.186Z,17.30
2017-09-23T08:23:17.326Z,17.73
2017-09-23T08:25:50.864Z,20.17
2017-09-23T08:28:21.678Z,19.67
2017-09-23T08:30:51.844Z,18.90
2017-09-23T08:33:35.976Z,18.00
2017-09-23T08:39:27.948Z,19.73
2017-09-23T08:42:05.850Z,19.43
2017-09-23T08:44:49.069Z,19.70
2017-09-23T08:47:24.432Z,18.60
2017-09-23T08:50:05.684Z,19.10
2017-09-23T08:52:37.393Z,19.00
2017-09-23T08:55:12.274Z,21.10
2017-09-23T08:57:49.377Z,21.27
2017-09-23T09:00:21.989Z,20.30
2017-09-23T09:03:07.972Z,18.07
2017-09-23T09:05:40.349Z,21.00
2017-09-23T09:08:17.785Z,17.43
2017-09-23T09:10:55.147Z,16.87
2017-09-23T09:14:09.539Z,17.13
2017-09-23T09:16:47.477Z,16.60
2017-09-23T09:19:23.171Z,16.93
2017-09-23T09:27:07.106Z,14.23
2017-09-23T09:29:46.946Z,15.77
2017-09-23T09:32:19.984Z,15.20
2017-09-23T09:34:54.130Z,14.83
2017-09-23T09:37:29.095Z,12.90
2017-09-23T09:40:48.387Z,14.10
2017-09-23T09:43:28.868Z,13.03
2017-09-23T09:46:09.219Z,13.47
2017-09-23T09:48:43.646Z,13.30
2017-09-23T09:51:17.284Z,12.80
2017-09-23T09:54:00.352Z,13.53
2017-09-23T09:56:45.416Z,13.30
2017-09-23T09:59:30.570Z,13.00
2017-09-23T10:02:12.024Z,13.40
2017-09-23T10:04:43.333Z,14.00
2017-09-23T10:07:18.542Z,15.23
2017-09-23T10:09:51.331Z,13.57
2017-09-23T10:12:32.776Z,14.70
2017-09-23T10:15:09.657Z,15.43
2017-09-23T10:17:46.937Z,15.43
2017-09-23T10:20:22.528Z,15.77
2017-09-23T10:23:01.055Z,15.43
2017-09-23T10:25:59.517Z,17.80
2017-09-23T10:28:33.790Z,17.10
2017-09-23T10:33:47.164Z,17.00
2017-09-23T10:36:21.375Z,19.70
2017-09-23T10:39:15.403Z,19.40
2017-09-23T10:41:47.286Z,18.07
2017-09-23T10:44:19.071Z,19.43
2017-09-23T10:47:13.971Z,17.93
2017-09-23T10:49:46.416Z,19.27
2017-09-23T10:52:21.648Z,18.37
2017-09-23T10:54:54.005Z,20.60
2017-09-23T10:57:23.971Z,18.97
2017-09-23T10:59:56.561Z,18.27
2017-09-23T11:02:27.849Z,19.67
2017-09-23T11:04:59.090Z,18.10
2017-09-23T11:07:51.810Z,19.00
2017-09-23T11:10:23.807Z,19.50
2017-09-23T11:12:57.021Z,20.97
2017-09-23T11:15:37.701Z,17.43
2017-09-23T11:18:10.220Z,18.43
2017-09-23T11:20:51.166Z,18.07
2017-09-23T11:23:32.892Z,17.53
2017-09-23T11:26:47.256Z,16.80
2017-09-23T11:29:20.616Z,15.20
2017-09-23T11:31:54.199Z,16.30
2017-09-23T11:34:33.281Z,17.07
2017-09-23T11:37:25.465Z,16.03
2017-09-23T11:40:14.429Z,16.13
2017-09-23T11:45:27.557Z,15.70
2017-09-23T11:48:01.185Z,16.10
2017-09-23T11:50:37.690Z,15.07
2017-09-23T11:53:12.063Z,16.77
2017-09-23T11:55:53.237Z,16.50
2017-09-23T11:58:31.944Z,16.57
2017-09-23T12:01:05.871Z,15.60
2017-09-23T12:03:39.921Z,15.80
2017-09-23T12:06:16.468Z,17.03
2017-09-23T12:08:48.936Z,16.47
2017-09-23T12:11:21.551Z,16.60
2017-09-23T12:13:51.583Z,16.20
2017-09-23T12:16:24.257Z,16.17
2017-09-23T12:21:40.963Z,15.23
2017-09-23T12:24:14.423Z,16.80
2017-09-23T12:26:53.205Z,15.13
2017-09-23T12:29:26.029Z,15.93
2017-09-23T12:31:57.049Z,15.20
2017-09-23T12:34:42.361Z,14.33
2017-09-23T12:42:34.062Z,14.60
2017-09-23T12:45:13.093Z,14.53
2017-09-23T12:47:43.848Z,14.30
2017-09-23T12:54:28.406Z,15.00
2017-09-23T13:12:42.998Z,15.33
2017-09-23T13:15:39.685Z,13.30
2017-09-23T13:18:11.117Z,12.70
2017-09-23T13:21:01.287Z,14.13
2017-09-23T13:23:50.231Z,14.43
2017-09-23T13:26:21.848Z,14.50
2017-09-23T13:29:37.124Z,14.13
2017-09-23T13:32:41.232Z,13.60
2017-09-23T13:35:26.124Z,13.63
2017-09-23T13:38:03.602Z,13.53
2017-09-23T13:40:46.459Z,14.37
2017-09-23T13:43:28.359Z,14.07
2017-09-23T13:45:59.381Z,14.03
2017-09-23T13:48:30.412Z,14.43
2017-09-23T13:51:02.309Z,15.67
2017-09-23T13:53:34.513Z,14.77
2017-09-23T13:56:10.172Z,14.07
2017-09-23T13:58:49.235Z,15.37
2017-09-23T14:01:23.952Z,14.00
2017-09-23T14:04:54.734Z,14.13
2017-09-23T14:07:43.616Z,13.80
2017-09-23T14:10:20.868Z,13.47
2017-09-23T14:12:53.125Z,12.37
2017-09-23T14:15:27.291Z,11.17
2017-09-23T14:18:12.786Z,12.10
2017-09-23T14:20:46.067Z,12.23
2017-09-23T14:26:08.884Z,12.00
2017-09-23T14:28:44.396Z,10.50
2017-09-23T14:31:19.861Z,12.70
2017-09-23T14:33:55.514Z,12.83
2017-09-23T14:36:32.433Z,14.80
2017-09-23T14:39:15.930Z,16.20
2017-09-23T14:41:58.381Z,16.60
2017-09-23T14:47:24.298Z,14.73
2017-09-23T14:50:09.017Z,15.27
2017-09-23T14:52:55.095Z,15.70
2017-09-23T14:55:29.750Z,17.43
2017-09-23T14:58:09.364Z,16.90
2017-09-23T15:00:42.398Z,16.60
2017-09-23T15:03:26.785Z,16.13
2017-09-23T15:06:05.634Z,16.03
2017-09-23T15:08:53.383Z,16.20
2017-09-23T15:11:26.905Z,17.83
2017-09-23T15:14:07.112Z,19.47
2017-09-23T15:16:47.350Z,19.93
2017-09-23T15:22:12.035Z,20.40
2017-09-23T15:24:51.835Z,20.90
2017-09-23T15:28:12.355Z,21.13
2017-09-23T15:31:17.393Z,20.47
2017-09-23T15:33:53.710Z,21.67
2017-09-23T15:36:34.649Z,19.97
2017-09-23T15:41:54.323Z,22.20
2017-09-23T15:49:57.678Z,22.23
2017-09-23T15:55:20.555Z,20.73
2017-09-23T15:57:56.303Z,26.50
2017-09-23T17:48:46.880Z,25.80
2017-09-23T17:51:18.397Z,26.20
2017-09-23T17:54:00.630Z,28.00
2017-09-23T17:56:41.047Z,25.67
2017-09-23T17:59:13.797Z,28.50
2017-09-23T18:01:44.841Z,27.97
2017-09-23T18:04:16.228Z,27.00
2017-09-23T18:06:47.461Z,25.97
2017-09-23T18:09:23.657Z,27.47
2017-09-23T18:11:54.574Z,26.57
2017-09-23T18:14:29.504Z,29.53
2017-09-23T18:17:03.740Z,27.13
2017-09-23T18:19:40.770Z,29.60
2017-09-23T18:22:23.815Z,30.33
2017-09-23T18:25:01.850Z,27.57
2017-09-23T18:27:33.298Z,28.57
2017-09-23T18:30:05.575Z,26.60
2017-09-23T18:32:37.276Z,28.40
2017-09-23T18:35:10.850Z,29.57
2017-09-23T18:37:41.851Z,29.43
2017-09-23T18:40:19.919Z,30.97
2017-09-23T18:42:57.005Z,29.57
2017-09-23T18:45:33.913Z,28.50
2017-09-23T18:48:05.190Z,29.00
2017-09-23T18:50:39.155Z,29.47
2017-09-23T18:53:14.124Z,32.57
2017-09-23T18:55:53.924Z,31.90
2017-09-23T18:58:48.110Z,33.23
2017-09-23T19:01:19.167Z,32.70
2017-09-23T19:04:17.726Z,32.33
2017-09-23T19:06:48.916Z,30.63
2017-09-23T19:09:19.269Z,31.77
2017-09-23T19:11:52.631Z,35.17
2017-09-23T19:14:45.390Z,33.10
2017-09-23T19:17:17.170Z,32.60
2017-09-23T19:19:47.823Z,36.80
2017-09-23T19:22:30.315Z,34.37
2017-09-23T19:25:04.382Z,36.47
2017-09-23T19:27:34.765Z,38.37
2017-09-23T19:30:16.119Z,38.60
2017-09-23T19:32:52.332Z,37.83
2017-09-23T19:35:28.611Z,38.00
2017-09-23T19:38:09.069Z,37.47
2017-09-23T19:40:47.826Z,39.50
2017-09-23T19:43:24.155Z,32.10
2017-09-23T19:45:56.639Z,32.90
2017-09-23T19:48:30.824Z,31.80
2017-09-23T19:51:25.739Z,31.10
2017-09-23T19:54:11.164Z,35.87
2017-09-23T19:56:42.893Z,32.00
2017-09-23T19:59:29.925Z,28.17
2017-09-23T20:02:01.232Z,28.30
2017-09-23T20:04:38.739Z,30.63
2017-09-23T20:07:12.092Z,28.70
2017-09-23T20:09:49.869Z,30.80
2017-09-23T20:12:55.073Z,33.10
2017-09-23T20:15:29.475Z,35.57
2017-09-23T20:18:09.349Z,34.83
2017-09-23T20:23:14.035Z,39.90
2017-09-23T20:25:51.603Z,35.20
2017-09-23T20:28:23.442Z,33.77
2017-09-23T20:30:56.630Z,34.17
2017-09-23T20:33:30.648Z,33.27
2017-09-23T20:38:50.106Z,38.80
2017-09-23T20:41:24.342Z,36.90
2017-09-23T20:43:58.636Z,37.60
2017-09-23T20:46:36.637Z,38.50
2017-09-23T20:49:10.906Z,34.33
2017-09-23T20:51:42.800Z,32.60
2017-09-23T20:54:16.278Z,31.47
2017-09-23T20:56:49.874Z,27.33
2017-09-23T20:59:23.059Z,24.30
2017-09-23T21:01:54.968Z,23.67
2017-09-23T21:04:30.773Z,22.10
2017-09-23T21:07:02.648Z,19.60
2017-09-23T21:09:34.327Z,19.47
2017-09-23T21:12:07.152Z,25.47
2017-09-23T21:14:39.643Z,27.53
2017-09-23T21:17:12.784Z,26.03
2017-09-23T21:19:44.060Z,27.70
2017-09-23T21:22:18.703Z,22.77
2017-09-23T21:24:52.228Z,23.20
2017-09-23T21:27:25.858Z,28.73
2017-09-23T21:30:03.962Z,26.13
2017-09-23T21:32:37.460Z,23.90
2017-09-23T21:35:09.591Z,24.50
2017-09-23T21:37:42.671Z,29.33
2017-09-23T21:40:14.780Z,28.90
2017-09-23T21:42:46.640Z,27.97
2017-09-23T21:45:18.403Z,26.47
2017-09-23T21:47:50.348Z,29.03
2017-09-23T21:50:28.969Z,26.43
2017-09-23T21:53:03.232Z,29.33
2017-09-23T21:55:47.197Z,27.50
2017-09-23T21:58:18.795Z,27.23
2017-09-23T22:00:51.046Z,28.47
2017-09-23T22:03:21.465Z,32.20
2017-09-23T22:05:52.825Z,28.70
2017-09-23T22:08:25.868Z,27.43
2017-09-23T22:10:59.409Z,29.27
2017-09-23T22:13:34.937Z,25.23
2017-09-23T22:16:07.391Z,24.77
2017-09-23T22:18:40.300Z,30.30
2017-09-23T22:21:13.817Z,27.20
2017-09-23T22:23:47.786Z,27.40
2017-09-23T22:26:20.071Z,26.10
2017-09-23T22:28:51.687Z,27.47
2017-09-23T22:31:23.463Z,26.67
2017-09-23T22:33:57.452Z,26.60
2017-09-23T22:36:29.090Z,23.80
2017-09-23T22:39:01.328Z,26.13
2017-09-23T22:41:33.481Z,26.80
2017-09-23T22:44:08.976Z,27.73
2017-09-23T22:46:40.872Z,26.20
2017-09-23T22:49:14.000Z,26.53
2017-09-23T22:51:48.235Z,25.90
2017-09-23T22:54:22.637Z,27.00
2017-09-23T22:56:55.862Z,27.50
2017-09-23T22:59:29.472Z,29.50
2017-09-23T23:02:01.544Z,31.40
2017-09-23T23:04:34.756Z,28.33
2017-09-23T23:07:08.448Z,25.77
2017-09-23T23:09:41.632Z,28.10
2017-09-23T23:12:13.625Z,23.43
2017-09-23T23:14:44.886Z,23.33
2017-09-23T23:17:15.861Z,25.53
2017-09-23T23:19:47.015Z,25.90
2017-09-23T23:22:17.994Z,27.23
2017-09-23T23:24:58.049Z,29.33
2017-09-23T23:27:29.027Z,31.83
2017-09-23T23:30:01.194Z,27.93
2017-09-23T23:32:33.911Z,29.07
2017-09-23T23:35:05.626Z,34.97
2017-09-23T23:37:36.759Z,34.30
2017-09-23T23:40:09.522Z,38.37
2017-09-23T23:42:40.424Z,34.50
2017-09-23T23:45:14.238Z,33.80
2017-09-23T23:47:44.716Z,37.67
2017-09-23T23:50:16.262Z,37.93
2017-09-23T23:53:13.111Z,36.30
2017-09-23T23:55:48.990Z,35.20
2017-09-23T23:58:51.931Z,27.77
